This is the latest recevied weather packets stored in our database for station/object K1JO. If no packets are shown the sender has not sent any weather packets the latest 10 day(s).
| Time | Temp. | Humidity | Pressure | Rain* | Wind** | Luminosity | Snow |
|---|---|---|---|---|---|---|---|
| 1777985856 | 17.22° C | 64% | 1003.9 hPa | 0 mm | - | 401 W/m² | - |
| 1777985554 | 17.22° C | 63% | 1004 hPa | 0 mm | - | 384 W/m² | - |
| 1777985250 | 17.22° C | 62% | 1004.2 hPa | 0 mm | - | 465 W/m² | - |
| 1777984947 | 16.67° C | 63% | 1003.9 hPa | 0 mm | - | 412 W/m² | - |
| 1777984643 | 16.11° C | 65% | 1004.1 hPa | 0 mm | - | 369 W/m² | - |
| 1777984340 | 15.56° C | 66% | 1004 hPa | 0 mm | - | 382 W/m² | - |
| 1777984036 | 15.56° C | 68% | 1004.2 hPa | 0 mm | - | 338 W/m² | - |
| 1777983734 | 15.56° C | 68% | 1003.9 hPa | 0 mm | - | 380 W/m² | - |
| 1777983430 | 15° C | 67% | 1004 hPa | 0 mm | - | 355 W/m² | - |
| 1777983127 | 15° C | 71% | 1003.9 hPa | 0 mm | - | 308 W/m² | - |
| 1777982823 | 15° C | 68% | 1004.3 hPa | 0 mm | - | 317 W/m² | - |
| 1777982520 | 15° C | 72% | 1004.3 hPa | 0 mm | - | 323 W/m² | - |
| 1777982219 | 15° C | 71% | 1004.2 hPa | 0 mm | - | 312 W/m² | - |
| 1777981917 | 14.44° C | 71% | 1004.4 hPa | 0 mm | - | 283 W/m² | - |
| 1777981614 | 13.89° C | 71% | 1004.5 hPa | 0 mm | - | 265 W/m² | - |
| 1777981310 | 13.33° C | 73% | 1004.4 hPa | 0 mm | - | 220 W/m² | - |
| 1777981006 | 13.33° C | 74% | 1004.3 hPa | 0 mm | - | 223 W/m² | - |
| 1777980703 | 13.33° C | 74% | 1004.2 hPa | 0 mm | - | 193 W/m² | - |
| 1777980400 | 13.33° C | 75% | 1004.1 hPa | 0 mm | - | 173 W/m² | - |
| 1777980098 | 12.78° C | 77% | 1004.1 hPa | 0 mm | - | 124 W/m² | - |
| 1777979791 | 12.22° C | 77% | 1004.2 hPa | 0 mm | - | 133 W/m² | - |
| 1777979487 | 11.67° C | 81% | 1004.2 hPa | 0 mm | - | 118 W/m² | - |
| 1777979184 | 11.11° C | 84% | 1004.2 hPa | 0 mm | - | 98 W/m² | - |
| 1777978881 | 10° C | 93% | 1004 hPa | 0 mm | - | 94 W/m² | - |
| 1777978577 | 9.44° C | 99% | 1004.1 hPa | 0 mm | - | 93 W/m² | - |
* Rain latest hour (hover to see other rain measurements)
** Current wind speed in m/s (hover to see current wind gust speed)